Nagaleader — VRDD5 — position and weather

sailwx.info

Track history (hours):
 
Tides and Currents Weather Stations Pressure Air Temp Water Temp Dewpoint Dewpoint Depression Visibility Wind Speed Wind Dir Waves Ship Positions

Nagaleader

Last reported at 2017-Feb-23 17:10 UTC. Time now 2017-Feb-26 14:33 UTC.
Position N 22°33' E 120°20'.

Length 113 m; draft 7.3 m.

Type: Cargo ship. MMSI: 477926700.

Date/timePositionNaut miles runAvg speedWind from/ knotsBaromVisibWave heightAir tempDewpointWater temp
2017-Feb-23 17:10N 22°33' E 120°20'3 4.5
2017-Feb-23 16:33N 22°33' E 120°17'9 8.5
2017-Feb-23 15:33N 22°38' E 120°10'  
2017-Feb-20 18:33N 22°49' E 119°54'1212.1
2017-Feb-20 17:33N 22°40' E 120°03'1211.5
2017-Feb-20 16:33N 22°33' E 120°13'5 4.9
2017-Feb-20 15:29N 22°34' E 120°19'0 0.0
2017-Feb-20 14:32N 22°34' E 120°19'0 0.0
2017-Feb-20 13:32N 22°34' E 120°19'0 0.0
2017-Feb-20 12:32N 22°34' E 120°19'0 0.0
2017-Feb-20 11:32N 22°34' E 120°19'0 0.0
2017-Feb-20 10:32N 22°34' E 120°19'0 0.0
2017-Feb-20 09:32N 22°34' E 120°19'0 0.0
2017-Feb-20 08:29N 22°34' E 120°19'0 0.0
2017-Feb-20 07:32N 22°34' E 120°19'0 0.1
2017-Feb-20 06:32N 22°34' E 120°19'1 1.1
2017-Feb-20 05:29N 22°33' E 120°20'0 0.0
2017-Feb-20 04:29N 22°33' E 120°20'0 0.0
2017-Feb-20 03:32N 22°33' E 120°20'0 0.0
2017-Feb-20 00:23N 22°33' E 120°20'0 0.0
2017-Feb-19 22:17N 22°33' E 120°20'1 0.2
2017-Feb-19 15:33N 22°33' E 120°19'8 8.4
2017-Feb-19 14:33N 22°36' E 120°10'1211.6
2017-Feb-19 13:33N 22°47' E 120°05'0 0.0
2017-Feb-17 09:34N 22°47' E 120°06'1211.9
2017-Feb-17 08:34N 22°36' E 120°11'7 6.6
2017-Feb-17 07:28N 22°34' E 120°19'0 0.0
2017-Feb-17 06:31N 22°34' E 120°19'0 0.0
2017-Feb-17 05:31N 22°34' E 120°19'0 0.0
2017-Feb-17 04:31N 22°34' E 120°19'0 0.0
2017-Feb-17 03:31N 22°34' E 120°19'0 0.0
2017-Feb-17 02:31N 22°34' E 120°19'0 0.0
2017-Feb-17 01:31N 22°34' E 120°19'0 0.0
2017-Feb-17 00:28N 22°34' E 120°19'0 0.0
2017-Feb-16 23:33N 22°34' E 120°19'4 4.4
2017-Feb-16 22:33N 22°32' E 120°14'9 9.1
2017-Feb-16 21:33N 22°39' E 120°08'1212.2
2017-Feb-16 20:33N 22°51' E 120°04'  
2017-Feb-13 18:31N 22°49' E 120°06'1112.0
2017-Feb-13 17:33N 22°38' E 120°11'  
Track history (hours):
 
Tides and Currents Weather Stations Pressure Air Temp Water Temp Dewpoint Dewpoint Depression Visibility Wind Speed Wind Dir Waves Ship Positions

Nagaleader

Last reported at 2017-Feb-23 17:10 UTC. Time now 2017-Feb-26 14:33 UTC.
Position N 22°33' E 120°20'.

Length 113 m; draft 7.3 m.

Type: Cargo ship. MMSI: 477926700.

Date/timePositionNaut miles runAvg speedWind from/ knotsBaromVisibWave heightAir tempDewpointWater temp
2017-Feb-23 17:10N 22°33' E 120°20'3 4.5
2017-Feb-23 16:33N 22°33' E 120°17'9 8.5
2017-Feb-23 15:33N 22°38' E 120°10'  
2017-Feb-20 18:33N 22°49' E 119°54'1212.1
2017-Feb-20 17:33N 22°40' E 120°03'1211.5
2017-Feb-20 16:33N 22°33' E 120°13'5 4.9
2017-Feb-20 15:29N 22°34' E 120°19'0 0.0
2017-Feb-20 14:32N 22°34' E 120°19'0 0.0
2017-Feb-20 13:32N 22°34' E 120°19'0 0.0
2017-Feb-20 12:32N 22°34' E 120°19'0 0.0
2017-Feb-20 11:32N 22°34' E 120°19'0 0.0
2017-Feb-20 10:32N 22°34' E 120°19'0 0.0
2017-Feb-20 09:32N 22°34' E 120°19'0 0.0
2017-Feb-20 08:29N 22°34' E 120°19'0 0.0
2017-Feb-20 07:32N 22°34' E 120°19'0 0.1
2017-Feb-20 06:32N 22°34' E 120°19'1 1.1
2017-Feb-20 05:29N 22°33' E 120°20'0 0.0
2017-Feb-20 04:29N 22°33' E 120°20'0 0.0
2017-Feb-20 03:32N 22°33' E 120°20'0 0.0
2017-Feb-20 00:23N 22°33' E 120°20'0 0.0
2017-Feb-19 22:17N 22°33' E 120°20'1 0.2
2017-Feb-19 15:33N 22°33' E 120°19'8 8.4
2017-Feb-19 14:33N 22°36' E 120°10'1211.6
2017-Feb-19 13:33N 22°47' E 120°05'0 0.0
2017-Feb-17 09:34N 22°47' E 120°06'1211.9
2017-Feb-17 08:34N 22°36' E 120°11'7 6.6
2017-Feb-17 07:28N 22°34' E 120°19'0 0.0
2017-Feb-17 06:31N 22°34' E 120°19'0 0.0
2017-Feb-17 05:31N 22°34' E 120°19'0 0.0
2017-Feb-17 04:31N 22°34' E 120°19'0 0.0
2017-Feb-17 03:31N 22°34' E 120°19'0 0.0
2017-Feb-17 02:31N 22°34' E 120°19'0 0.0
2017-Feb-17 01:31N 22°34' E 120°19'0 0.0
2017-Feb-17 00:28N 22°34' E 120°19'0 0.0
2017-Feb-16 23:33N 22°34' E 120°19'4 4.4
2017-Feb-16 22:33N 22°32' E 120°14'9 9.1
2017-Feb-16 21:33N 22°39' E 120°08'1212.2
2017-Feb-16 20:33N 22°51' E 120°04'  
2017-Feb-13 18:31N 22°49' E 120°06'1112.0
2017-Feb-13 17:33N 22°38' E 120°11'  

Dump ship's entire track history